sensor_id;sensor_type;location;lat;lon;timestamp;P1;durP1;ratioP1;P2;durP2;ratioP2
75054;SDS011;63636;44.746;10.488;2022-12-07T00:02:18;39.13;;;19.70;;
75054;SDS011;63636;44.746;10.488;2022-12-07T00:04:44;39.95;;;19.67;;
75054;SDS011;63636;44.746;10.488;2022-12-07T00:07:10;41.08;;;20.27;;
75054;SDS011;63636;44.746;10.488;2022-12-07T00:09:37;44.20;;;24.27;;
75054;SDS011;63636;44.746;10.488;2022-12-07T00:12:03;37.55;;;18.85;;
75054;SDS011;63636;44.746;10.488;2022-12-07T00:14:29;35.92;;;19.17;;
75054;SDS011;63636;44.746;10.488;2022-12-07T00:17:16;36.28;;;18.63;;
75054;SDS011;63636;44.746;10.488;2022-12-07T00:19:41;35.78;;;18.75;;
75054;SDS011;63636;44.746;10.488;2022-12-07T00:22:07;35.05;;;18.02;;
75054;SDS011;63636;44.746;10.488;2022-12-07T00:24:33;37.47;;;18.23;;
75054;SDS011;63636;44.746;10.488;2022-12-07T00:26:59;34.60;;;17.45;;
75054;SDS011;63636;44.746;10.488;2022-12-07T00:29:25;36.97;;;18.23;;
75054;SDS011;63636;44.746;10.488;2022-12-07T00:31:50;37.78;;;18.50;;
75054;SDS011;63636;44.746;10.488;2022-12-07T00:34:17;34.90;;;17.27;;
75054;SDS011;63636;44.746;10.488;2022-12-07T00:36:43;36.38;;;17.92;;
75054;SDS011;63636;44.746;10.488;2022-12-07T00:39:09;33.78;;;17.30;;
75054;SDS011;63636;44.746;10.488;2022-12-07T00:41:35;32.03;;;17.05;;
75054;SDS011;63636;44.746;10.488;2022-12-07T00:44:03;34.30;;;17.60;;
75054;SDS011;63636;44.746;10.488;2022-12-07T00:46:29;32.83;;;17.02;;
75054;SDS011;63636;44.746;10.488;2022-12-07T00:48:55;33.63;;;17.88;;
75054;SDS011;63636;44.746;10.488;2022-12-07T00:51:21;35.03;;;17.90;;
75054;SDS011;63636;44.746;10.488;2022-12-07T00:53:48;34.72;;;16.85;;
75054;SDS011;63636;44.746;10.488;2022-12-07T00:56:23;36.55;;;18.30;;
75054;SDS011;63636;44.746;10.488;2022-12-07T00:58:49;39.15;;;21.30;;
75054;SDS011;63636;44.746;10.488;2022-12-07T01:01:15;35.55;;;17.80;;
75054;SDS011;63636;44.746;10.488;2022-12-07T01:03:41;29.80;;;15.95;;
75054;SDS011;63636;44.746;10.488;2022-12-07T01:06:40;35.83;;;16.63;;
75054;SDS011;63636;44.746;10.488;2022-12-07T01:09:05;30.23;;;15.60;;
75054;SDS011;63636;44.746;10.488;2022-12-07T01:11:31;31.90;;;17.25;;
75054;SDS011;63636;44.746;10.488;2022-12-07T01:13:57;33.22;;;17.20;;
75054;SDS011;63636;44.746;10.488;2022-12-07T01:16:25;28.80;;;15.05;;
75054;SDS011;63636;44.746;10.488;2022-12-07T01:18:52;30.55;;;15.85;;
75054;SDS011;63636;44.746;10.488;2022-12-07T01:21:20;29.30;;;15.15;;
75054;SDS011;63636;44.746;10.488;2022-12-07T01:23:46;26.63;;;13.90;;
75054;SDS011;63636;44.746;10.488;2022-12-07T01:26:13;30.23;;;15.57;;
75054;SDS011;63636;44.746;10.488;2022-12-07T01:28:39;30.05;;;14.77;;
75054;SDS011;63636;44.746;10.488;2022-12-07T01:31:06;32.90;;;15.77;;
75054;SDS011;63636;44.746;10.488;2022-12-07T01:33:33;28.98;;;15.70;;
75054;SDS011;63636;44.746;10.488;2022-12-07T01:36:07;28.20;;;14.95;;
75054;SDS011;63636;44.746;10.488;2022-12-07T01:38:33;29.20;;;14.18;;
75054;SDS011;63636;44.746;10.488;2022-12-07T01:40:59;25.80;;;13.43;;
75054;SDS011;63636;44.746;10.488;2022-12-07T01:43:27;28.25;;;14.63;;
75054;SDS011;63636;44.746;10.488;2022-12-07T01:45:53;28.05;;;13.90;;
75054;SDS011;63636;44.746;10.488;2022-12-07T01:48:31;26.45;;;13.32;;
75054;SDS011;63636;44.746;10.488;2022-12-07T01:51:01;27.20;;;13.40;;
75054;SDS011;63636;44.746;10.488;2022-12-07T01:53:28;29.52;;;14.45;;
75054;SDS011;63636;44.746;10.488;2022-12-07T01:55:54;26.30;;;13.90;;
75054;SDS011;63636;44.746;10.488;2022-12-07T01:58:21;26.48;;;13.80;;
75054;SDS011;63636;44.746;10.488;2022-12-07T02:00:47;25.98;;;13.18;;
75054;SDS011;63636;44.746;10.488;2022-12-07T02:03:18;26.13;;;13.02;;
75054;SDS011;63636;44.746;10.488;2022-12-07T02:05:45;25.02;;;12.82;;
75054;SDS011;63636;44.746;10.488;2022-12-07T02:08:11;25.33;;;12.73;;
75054;SDS011;63636;44.746;10.488;2022-12-07T02:10:38;23.45;;;11.93;;
75054;SDS011;63636;44.746;10.488;2022-12-07T02:15:33;25.90;;;13.05;;
75054;SDS011;63636;44.746;10.488;2022-12-07T02:20:33;26.55;;;13.75;;
75054;SDS011;63636;44.746;10.488;2022-12-07T02:30:48;24.65;;;13.07;;
75054;SDS011;63636;44.746;10.488;2022-12-07T02:33:19;25.45;;;12.30;;
75054;SDS011;63636;44.746;10.488;2022-12-07T02:35:55;25.77;;;12.48;;
75054;SDS011;63636;44.746;10.488;2022-12-07T02:38:29;24.08;;;12.15;;
75054;SDS011;63636;44.746;10.488;2022-12-07T02:43:23;23.85;;;11.35;;
75054;SDS011;63636;44.746;10.488;2022-12-07T02:45:49;23.63;;;11.70;;
75054;SDS011;63636;44.746;10.488;2022-12-07T02:48:17;24.63;;;11.77;;
75054;SDS011;63636;44.746;10.488;2022-12-07T02:50:45;23.77;;;11.50;;
75054;SDS011;63636;44.746;10.488;2022-12-07T02:55:59;23.95;;;11.63;;
75054;SDS011;63636;44.746;10.488;2022-12-07T02:58:32;21.48;;;11.00;;
75054;SDS011;63636;44.746;10.488;2022-12-07T03:01:15;25.92;;;12.18;;
75054;SDS011;63636;44.746;10.488;2022-12-07T03:03:47;25.67;;;12.00;;
75054;SDS011;63636;44.746;10.488;2022-12-07T03:06:22;23.73;;;11.88;;
75054;SDS011;63636;44.746;10.488;2022-12-07T03:09:07;23.25;;;11.50;;
75054;SDS011;63636;44.746;10.488;2022-12-07T03:14:04;21.70;;;10.98;;
75054;SDS011;63636;44.746;10.488;2022-12-07T03:16:39;23.05;;;11.23;;
75054;SDS011;63636;44.746;10.488;2022-12-07T03:19:07;23.98;;;11.65;;
75054;SDS011;63636;44.746;10.488;2022-12-07T03:21:35;22.30;;;10.80;;
75054;SDS011;63636;44.746;10.488;2022-12-07T03:24:03;21.63;;;10.88;;
75054;SDS011;63636;44.746;10.488;2022-12-07T03:26:36;21.77;;;11.02;;
75054;SDS011;63636;44.746;10.488;2022-12-07T03:29:15;21.23;;;10.93;;
75054;SDS011;63636;44.746;10.488;2022-12-07T03:31:47;22.10;;;11.07;;
75054;SDS011;63636;44.746;10.488;2022-12-07T03:34:24;22.42;;;11.45;;
75054;SDS011;63636;44.746;10.488;2022-12-07T03:36:55;21.08;;;11.00;;
75054;SDS011;63636;44.746;10.488;2022-12-07T03:39:23;21.92;;;10.73;;
75054;SDS011;63636;44.746;10.488;2022-12-07T03:41:50;25.30;;;11.65;;
75054;SDS011;63636;44.746;10.488;2022-12-07T03:44:16;22.55;;;11.60;;
75054;SDS011;63636;44.746;10.488;2022-12-07T03:54:14;21.92;;;11.48;;
75054;SDS011;63636;44.746;10.488;2022-12-07T03:56:40;22.63;;;11.55;;
75054;SDS011;63636;44.746;10.488;2022-12-07T03:59:07;20.75;;;10.93;;
75054;SDS011;63636;44.746;10.488;2022-12-07T04:01:33;21.85;;;10.65;;
75054;SDS011;63636;44.746;10.488;2022-12-07T04:03:59;21.08;;;10.43;;
75054;SDS011;63636;44.746;10.488;2022-12-07T04:06:24;20.88;;;10.82;;
75054;SDS011;63636;44.746;10.488;2022-12-07T04:08:50;20.80;;;10.27;;
75054;SDS011;63636;44.746;10.488;2022-12-07T04:11:16;20.75;;;10.18;;
75054;SDS011;63636;44.746;10.488;2022-12-07T04:13:41;18.55;;;9.40;;
75054;SDS011;63636;44.746;10.488;2022-12-07T04:16:26;19.52;;;9.70;;
75054;SDS011;63636;44.746;10.488;2022-12-07T04:18:54;19.38;;;10.52;;
75054;SDS011;63636;44.746;10.488;2022-12-07T04:21:19;22.60;;;8.95;;
75054;SDS011;63636;44.746;10.488;2022-12-07T04:23:45;20.58;;;9.13;;
75054;SDS011;63636;44.746;10.488;2022-12-07T04:26:11;19.08;;;8.80;;
75054;SDS011;63636;44.746;10.488;2022-12-07T04:28:36;18.67;;;8.90;;
75054;SDS011;63636;44.746;10.488;2022-12-07T04:31:02;17.40;;;8.90;;
75054;SDS011;63636;44.746;10.488;2022-12-07T04:33:27;19.90;;;9.13;;
75054;SDS011;63636;44.746;10.488;2022-12-07T04:35:53;18.95;;;9.10;;
75054;SDS011;63636;44.746;10.488;2022-12-07T04:38:19;20.73;;;9.43;;
75054;SDS011;63636;44.746;10.488;2022-12-07T04:40:44;21.08;;;9.40;;
75054;SDS011;63636;44.746;10.488;2022-12-07T04:43:10;20.27;;;9.68;;
75054;SDS011;63636;44.746;10.488;2022-12-07T04:45:35;21.65;;;10.63;;
75054;SDS011;63636;44.746;10.488;2022-12-07T04:48:01;22.42;;;9.77;;
75054;SDS011;63636;44.746;10.488;2022-12-07T04:50:26;22.00;;;10.45;;
75054;SDS011;63636;44.746;10.488;2022-12-07T04:52:52;20.92;;;10.52;;
75054;SDS011;63636;44.746;10.488;2022-12-07T04:55:18;27.00;;;11.77;;
75054;SDS011;63636;44.746;10.488;2022-12-07T04:57:43;23.67;;;11.32;;
75054;SDS011;63636;44.746;10.488;2022-12-07T05:00:09;24.08;;;11.90;;
75054;SDS011;63636;44.746;10.488;2022-12-07T05:02:35;26.20;;;11.90;;
75054;SDS011;63636;44.746;10.488;2022-12-07T05:05:00;26.80;;;13.05;;
75054;SDS011;63636;44.746;10.488;2022-12-07T05:07:26;27.30;;;13.45;;
75054;SDS011;63636;44.746;10.488;2022-12-07T05:09:51;29.77;;;14.48;;
75054;SDS011;63636;44.746;10.488;2022-12-07T05:12:17;37.83;;;18.10;;
75054;SDS011;63636;44.746;10.488;2022-12-07T05:14:43;43.42;;;20.90;;
75054;SDS011;63636;44.746;10.488;2022-12-07T05:17:08;45.58;;;22.48;;
75054;SDS011;63636;44.746;10.488;2022-12-07T05:19:34;44.45;;;21.88;;
75054;SDS011;63636;44.746;10.488;2022-12-07T05:21:59;44.33;;;21.88;;
75054;SDS011;63636;44.746;10.488;2022-12-07T05:24:25;45.13;;;22.15;;
75054;SDS011;63636;44.746;10.488;2022-12-07T05:26:50;46.45;;;22.83;;
75054;SDS011;63636;44.746;10.488;2022-12-07T05:29:16;47.35;;;23.27;;
75054;SDS011;63636;44.746;10.488;2022-12-07T05:31:42;47.42;;;23.25;;
75054;SDS011;63636;44.746;10.488;2022-12-07T05:34:09;44.67;;;22.42;;
75054;SDS011;63636;44.746;10.488;2022-12-07T05:36:35;46.92;;;22.73;;
75054;SDS011;63636;44.746;10.488;2022-12-07T05:39:00;46.55;;;22.90;;
75054;SDS011;63636;44.746;10.488;2022-12-07T05:41:26;40.70;;;21.40;;
75054;SDS011;63636;44.746;10.488;2022-12-07T05:44:10;44.10;;;21.63;;
75054;SDS011;63636;44.746;10.488;2022-12-07T05:46:36;44.20;;;22.02;;
75054;SDS011;63636;44.746;10.488;2022-12-07T05:49:01;42.58;;;21.88;;
75054;SDS011;63636;44.746;10.488;2022-12-07T05:51:27;45.15;;;21.90;;
75054;SDS011;63636;44.746;10.488;2022-12-07T05:53:52;40.85;;;20.55;;
75054;SDS011;63636;44.746;10.488;2022-12-07T05:56:18;42.08;;;20.55;;
75054;SDS011;63636;44.746;10.488;2022-12-07T05:58:43;40.35;;;20.20;;
75054;SDS011;63636;44.746;10.488;2022-12-07T06:01:28;37.67;;;19.02;;
75054;SDS011;63636;44.746;10.488;2022-12-07T06:03:53;35.50;;;18.20;;
75054;SDS011;63636;44.746;10.488;2022-12-07T06:06:19;36.35;;;18.58;;
75054;SDS011;63636;44.746;10.488;2022-12-07T06:08:45;38.00;;;18.98;;
75054;SDS011;63636;44.746;10.488;2022-12-07T06:11:10;36.42;;;18.00;;
75054;SDS011;63636;44.746;10.488;2022-12-07T06:13:54;38.05;;;18.95;;
75054;SDS011;63636;44.746;10.488;2022-12-07T06:16:20;38.78;;;19.45;;
75054;SDS011;63636;44.746;10.488;2022-12-07T06:18:45;37.08;;;18.65;;
75054;SDS011;63636;44.746;10.488;2022-12-07T06:21:11;35.83;;;18.27;;
75054;SDS011;63636;44.746;10.488;2022-12-07T06:23:37;34.95;;;17.98;;
75054;SDS011;63636;44.746;10.488;2022-12-07T06:26:02;35.15;;;18.60;;
75054;SDS011;63636;44.746;10.488;2022-12-07T06:28:28;37.92;;;18.13;;
75054;SDS011;63636;44.746;10.488;2022-12-07T06:31:00;35.15;;;18.63;;
75054;SDS011;63636;44.746;10.488;2022-12-07T06:33:26;34.60;;;18.38;;
75054;SDS011;63636;44.746;10.488;2022-12-07T06:35:52;33.22;;;17.48;;
75054;SDS011;63636;44.746;10.488;2022-12-07T06:38:17;35.90;;;18.20;;
75054;SDS011;63636;44.746;10.488;2022-12-07T06:40:43;32.17;;;17.27;;
75054;SDS011;63636;44.746;10.488;2022-12-07T06:43:10;33.70;;;18.23;;
75054;SDS011;63636;44.746;10.488;2022-12-07T06:45:35;38.83;;;19.67;;
75054;SDS011;63636;44.746;10.488;2022-12-07T06:48:01;38.05;;;19.58;;
75054;SDS011;63636;44.746;10.488;2022-12-07T06:50:26;41.20;;;19.70;;
75054;SDS011;63636;44.746;10.488;2022-12-07T06:52:52;37.88;;;19.02;;
75054;SDS011;63636;44.746;10.488;2022-12-07T06:55:17;39.47;;;19.30;;
75054;SDS011;63636;44.746;10.488;2022-12-07T06:57:43;36.88;;;19.20;;
75054;SDS011;63636;44.746;10.488;2022-12-07T07:00:09;41.80;;;19.85;;
75054;SDS011;63636;44.746;10.488;2022-12-07T07:02:35;39.97;;;19.23;;
75054;SDS011;63636;44.746;10.488;2022-12-07T07:05:00;36.90;;;19.33;;
75054;SDS011;63636;44.746;10.488;2022-12-07T07:07:26;41.78;;;20.00;;
75054;SDS011;63636;44.746;10.488;2022-12-07T07:09:52;38.75;;;19.55;;
75054;SDS011;63636;44.746;10.488;2022-12-07T07:12:17;37.30;;;19.02;;
75054;SDS011;63636;44.746;10.488;2022-12-07T07:14:43;35.15;;;18.73;;
75054;SDS011;63636;44.746;10.488;2022-12-07T07:17:08;37.80;;;19.30;;
75054;SDS011;63636;44.746;10.488;2022-12-07T07:19:34;38.05;;;18.58;;
75054;SDS011;63636;44.746;10.488;2022-12-07T07:21:59;37.70;;;19.23;;
75054;SDS011;63636;44.746;10.488;2022-12-07T07:24:25;36.55;;;18.52;;
75054;SDS011;63636;44.746;10.488;2022-12-07T07:26:51;40.10;;;19.23;;
75054;SDS011;63636;44.746;10.488;2022-12-07T07:29:20;40.58;;;19.15;;
75054;SDS011;63636;44.746;10.488;2022-12-07T07:31:46;36.40;;;18.80;;
75054;SDS011;63636;44.746;10.488;2022-12-07T07:34:11;39.55;;;18.50;;
75054;SDS011;63636;44.746;10.488;2022-12-07T07:36:37;36.00;;;18.83;;
75054;SDS011;63636;44.746;10.488;2022-12-07T07:39:03;39.97;;;19.70;;
75054;SDS011;63636;44.746;10.488;2022-12-07T07:41:28;36.85;;;19.00;;
75054;SDS011;63636;44.746;10.488;2022-12-07T07:43:54;41.75;;;20.20;;
75054;SDS011;63636;44.746;10.488;2022-12-07T07:46:19;40.85;;;19.50;;
75054;SDS011;63636;44.746;10.488;2022-12-07T07:48:45;41.95;;;19.88;;
75054;SDS011;63636;44.746;10.488;2022-12-07T07:51:11;38.67;;;19.45;;
75054;SDS011;63636;44.746;10.488;2022-12-07T07:53:36;43.05;;;20.25;;
75054;SDS011;63636;44.746;10.488;2022-12-07T07:56:02;37.83;;;20.00;;
75054;SDS011;63636;44.746;10.488;2022-12-07T07:58:27;40.20;;;19.95;;
75054;SDS011;63636;44.746;10.488;2022-12-07T08:00:53;41.13;;;19.70;;
75054;SDS011;63636;44.746;10.488;2022-12-07T08:03:19;39.20;;;18.98;;
75054;SDS011;63636;44.746;10.488;2022-12-07T08:05:45;41.22;;;19.58;;
75054;SDS011;63636;44.746;10.488;2022-12-07T08:08:11;40.72;;;19.98;;
75054;SDS011;63636;44.746;10.488;2022-12-07T08:10:36;40.05;;;20.13;;
75054;SDS011;63636;44.746;10.488;2022-12-07T08:13:02;44.35;;;20.27;;
75054;SDS011;63636;44.746;10.488;2022-12-07T08:15:39;45.17;;;21.08;;
75054;SDS011;63636;44.746;10.488;2022-12-07T08:18:05;39.83;;;19.60;;
75054;SDS011;63636;44.746;10.488;2022-12-07T08:20:31;40.67;;;19.92;;
75054;SDS011;63636;44.746;10.488;2022-12-07T08:22:58;40.08;;;19.63;;
75054;SDS011;63636;44.746;10.488;2022-12-07T08:25:24;38.13;;;18.77;;
75054;SDS011;63636;44.746;10.488;2022-12-07T08:27:50;36.78;;;18.00;;
75054;SDS011;63636;44.746;10.488;2022-12-07T08:30:16;39.10;;;18.58;;
75054;SDS011;63636;44.746;10.488;2022-12-07T08:32:41;36.95;;;18.20;;
75054;SDS011;63636;44.746;10.488;2022-12-07T08:35:07;38.17;;;18.13;;
75054;SDS011;63636;44.746;10.488;2022-12-07T08:37:33;38.45;;;19.17;;
75054;SDS011;63636;44.746;10.488;2022-12-07T08:39:59;36.92;;;18.88;;
75054;SDS011;63636;44.746;10.488;2022-12-07T08:42:24;33.50;;;17.52;;
75054;SDS011;63636;44.746;10.488;2022-12-07T08:44:55;36.95;;;18.25;;
75054;SDS011;63636;44.746;10.488;2022-12-07T08:47:21;36.58;;;18.15;;
75054;SDS011;63636;44.746;10.488;2022-12-07T08:49:47;35.97;;;18.95;;
75054;SDS011;63636;44.746;10.488;2022-12-07T08:52:14;35.92;;;17.58;;
75054;SDS011;63636;44.746;10.488;2022-12-07T08:54:40;33.83;;;17.65;;
75054;SDS011;63636;44.746;10.488;2022-12-07T08:57:07;35.17;;;17.38;;
75054;SDS011;63636;44.746;10.488;2022-12-07T08:59:33;39.65;;;18.63;;
75054;SDS011;63636;44.746;10.488;2022-12-07T09:01:59;33.20;;;17.10;;
75054;SDS011;63636;44.746;10.488;2022-12-07T09:04:25;38.13;;;17.63;;
75054;SDS011;63636;44.746;10.488;2022-12-07T09:06:51;34.40;;;17.75;;
75054;SDS011;63636;44.746;10.488;2022-12-07T09:09:17;34.92;;;18.23;;
75054;SDS011;63636;44.746;10.488;2022-12-07T09:11:42;34.88;;;18.10;;
75054;SDS011;63636;44.746;10.488;2022-12-07T09:14:09;34.45;;;17.20;;
75054;SDS011;63636;44.746;10.488;2022-12-07T09:16:35;34.70;;;17.70;;
75054;SDS011;63636;44.746;10.488;2022-12-07T09:19:00;37.88;;;18.80;;
75054;SDS011;63636;44.746;10.488;2022-12-07T09:21:26;38.53;;;18.75;;
75054;SDS011;63636;44.746;10.488;2022-12-07T09:23:51;41.60;;;18.35;;
75054;SDS011;63636;44.746;10.488;2022-12-07T09:26:17;36.60;;;18.48;;
75054;SDS011;63636;44.746;10.488;2022-12-07T09:28:43;37.72;;;18.45;;
75054;SDS011;63636;44.746;10.488;2022-12-07T09:31:08;37.33;;;18.58;;
75054;SDS011;63636;44.746;10.488;2022-12-07T09:33:34;35.25;;;18.67;;
75054;SDS011;63636;44.746;10.488;2022-12-07T09:35:59;37.35;;;18.77;;
75054;SDS011;63636;44.746;10.488;2022-12-07T09:38:25;37.03;;;18.25;;
75054;SDS011;63636;44.746;10.488;2022-12-07T09:40:52;35.78;;;18.42;;
75054;SDS011;63636;44.746;10.488;2022-12-07T09:43:20;35.20;;;19.40;;
75054;SDS011;63636;44.746;10.488;2022-12-07T09:45:50;38.28;;;17.63;;
75054;SDS011;63636;44.746;10.488;2022-12-07T09:48:21;34.13;;;18.00;;
75054;SDS011;63636;44.746;10.488;2022-12-07T09:50:47;38.22;;;17.98;;
75054;SDS011;63636;44.746;10.488;2022-12-07T09:53:15;37.17;;;17.90;;
75054;SDS011;63636;44.746;10.488;2022-12-07T09:55:42;34.03;;;18.33;;
75054;SDS011;63636;44.746;10.488;2022-12-07T09:58:11;35.67;;;18.58;;
75054;SDS011;63636;44.746;10.488;2022-12-07T10:00:42;35.72;;;18.85;;
75054;SDS011;63636;44.746;10.488;2022-12-07T10:03:08;36.55;;;18.20;;
75054;SDS011;63636;44.746;10.488;2022-12-07T10:05:36;35.85;;;18.95;;
75054;SDS011;63636;44.746;10.488;2022-12-07T10:08:02;36.88;;;18.83;;
75054;SDS011;63636;44.746;10.488;2022-12-07T10:10:32;36.95;;;19.40;;
75054;SDS011;63636;44.746;10.488;2022-12-07T10:15:40;39.78;;;19.90;;
75054;SDS011;63636;44.746;10.488;2022-12-07T10:18:13;38.35;;;19.92;;
75054;SDS011;63636;44.746;10.488;2022-12-07T10:20:39;39.38;;;20.67;;
75054;SDS011;63636;44.746;10.488;2022-12-07T10:23:08;41.60;;;21.80;;
75054;SDS011;63636;44.746;10.488;2022-12-07T10:25:38;40.95;;;21.35;;
75054;SDS011;63636;44.746;10.488;2022-12-07T10:28:13;43.45;;;22.00;;
75054;SDS011;63636;44.746;10.488;2022-12-07T10:30:50;41.05;;;20.40;;
75054;SDS011;63636;44.746;10.488;2022-12-07T10:36:01;39.75;;;20.10;;
75054;SDS011;63636;44.746;10.488;2022-12-07T10:38:34;42.70;;;20.50;;
75054;SDS011;63636;44.746;10.488;2022-12-07T10:41:09;43.85;;;20.40;;
75054;SDS011;63636;44.746;10.488;2022-12-07T10:43:34;38.03;;;19.58;;
75054;SDS011;63636;44.746;10.488;2022-12-07T10:46:09;37.85;;;19.85;;
75054;SDS011;63636;44.746;10.488;2022-12-07T10:51:25;36.42;;;20.35;;
75054;SDS011;63636;44.746;10.488;2022-12-07T10:54:37;38.35;;;19.77;;
75054;SDS011;63636;44.746;10.488;2022-12-07T11:00:08;36.42;;;18.58;;
75054;SDS011;63636;44.746;10.488;2022-12-07T11:15:26;37.15;;;18.95;;
75054;SDS011;63636;44.746;10.488;2022-12-07T11:23:00;27.35;;;14.63;;
75054;SDS011;63636;44.746;10.488;2022-12-07T11:25:32;29.65;;;16.33;;
75054;SDS011;63636;44.746;10.488;2022-12-07T11:30:34;36.65;;;18.80;;
75054;SDS011;63636;44.746;10.488;2022-12-07T11:35:42;28.85;;;16.50;;
75054;SDS011;63636;44.746;10.488;2022-12-07T11:38:11;32.78;;;17.85;;
75054;SDS011;63636;44.746;10.488;2022-12-07T11:40:38;31.30;;;17.05;;
75054;SDS011;63636;44.746;10.488;2022-12-07T11:45:42;31.10;;;17.77;;
75054;SDS011;63636;44.746;10.488;2022-12-07T11:48:18;34.25;;;17.38;;
75054;SDS011;63636;44.746;10.488;2022-12-07T11:50:52;33.63;;;17.73;;
75054;SDS011;63636;44.746;10.488;2022-12-07T11:53:20;33.80;;;17.63;;
75054;SDS011;63636;44.746;10.488;2022-12-07T12:03:40;34.53;;;17.67;;
75054;SDS011;63636;44.746;10.488;2022-12-07T12:06:07;33.83;;;18.58;;
75054;SDS011;63636;44.746;10.488;2022-12-07T12:08:35;35.45;;;19.35;;
75054;SDS011;63636;44.746;10.488;2022-12-07T12:20:48;35.78;;;20.00;;
75054;SDS011;63636;44.746;10.488;2022-12-07T12:23:17;32.45;;;18.63;;
75054;SDS011;63636;44.746;10.488;2022-12-07T12:25:50;37.65;;;20.42;;
75054;SDS011;63636;44.746;10.488;2022-12-07T12:28:24;37.72;;;19.73;;
75054;SDS011;63636;44.746;10.488;2022-12-07T12:33:50;40.70;;;20.08;;
75054;SDS011;63636;44.746;10.488;2022-12-07T12:39:07;40.28;;;19.13;;
75054;SDS011;63636;44.746;10.488;2022-12-07T12:46:45;39.47;;;20.05;;
75054;SDS011;63636;44.746;10.488;2022-12-07T12:51:44;39.28;;;18.38;;
75054;SDS011;63636;44.746;10.488;2022-12-07T12:54:30;41.47;;;19.50;;
75054;SDS011;63636;44.746;10.488;2022-12-07T13:04:38;35.60;;;18.08;;
75054;SDS011;63636;44.746;10.488;2022-12-07T13:07:08;37.70;;;18.80;;
75054;SDS011;63636;44.746;10.488;2022-12-07T13:09:35;40.45;;;18.85;;
75054;SDS011;63636;44.746;10.488;2022-12-07T13:12:05;36.47;;;18.17;;
75054;SDS011;63636;44.746;10.488;2022-12-07T13:17:02;37.55;;;18.45;;
75054;SDS011;63636;44.746;10.488;2022-12-07T13:24:54;37.72;;;17.98;;
75054;SDS011;63636;44.746;10.488;2022-12-07T13:27:20;35.70;;;17.50;;
75054;SDS011;63636;44.746;10.488;2022-12-07T13:29:46;37.53;;;19.13;;
75054;SDS011;63636;44.746;10.488;2022-12-07T13:32:26;35.75;;;18.33;;
75054;SDS011;63636;44.746;10.488;2022-12-07T13:34:51;39.97;;;19.75;;
75054;SDS011;63636;44.746;10.488;2022-12-07T13:39:49;38.42;;;19.77;;
75054;SDS011;63636;44.746;10.488;2022-12-07T13:42:34;40.92;;;19.08;;
75054;SDS011;63636;44.746;10.488;2022-12-07T13:45:01;39.30;;;19.23;;
75054;SDS011;63636;44.746;10.488;2022-12-07T13:47:48;38.75;;;19.10;;
75054;SDS011;63636;44.746;10.488;2022-12-07T13:50:25;35.72;;;19.30;;
75054;SDS011;63636;44.746;10.488;2022-12-07T13:52:54;38.13;;;19.20;;
75054;SDS011;63636;44.746;10.488;2022-12-07T13:55:19;40.30;;;19.65;;
75054;SDS011;63636;44.746;10.488;2022-12-07T13:57:47;40.13;;;19.40;;
75054;SDS011;63636;44.746;10.488;2022-12-07T14:00:15;40.50;;;19.55;;
75054;SDS011;63636;44.746;10.488;2022-12-07T14:05:23;40.28;;;19.10;;
75054;SDS011;63636;44.746;10.488;2022-12-07T14:07:53;42.78;;;20.60;;
75054;SDS011;63636;44.746;10.488;2022-12-07T14:12:54;42.83;;;19.77;;
75054;SDS011;63636;44.746;10.488;2022-12-07T14:15:27;45.55;;;21.45;;
75054;SDS011;63636;44.746;10.488;2022-12-07T14:23:26;43.20;;;20.70;;
75054;SDS011;63636;44.746;10.488;2022-12-07T14:25:53;44.15;;;21.52;;
75054;SDS011;63636;44.746;10.488;2022-12-07T14:28:27;46.08;;;22.30;;
75054;SDS011;63636;44.746;10.488;2022-12-07T14:30:53;47.17;;;21.55;;
75054;SDS011;63636;44.746;10.488;2022-12-07T14:33:19;47.78;;;22.65;;
75054;SDS011;63636;44.746;10.488;2022-12-07T14:35:45;46.00;;;22.33;;
75054;SDS011;63636;44.746;10.488;2022-12-07T14:38:10;49.70;;;22.20;;
75054;SDS011;63636;44.746;10.488;2022-12-07T14:40:36;44.97;;;21.00;;
75054;SDS011;63636;44.746;10.488;2022-12-07T14:43:04;43.15;;;21.25;;
75054;SDS011;63636;44.746;10.488;2022-12-07T14:45:30;47.10;;;21.83;;
75054;SDS011;63636;44.746;10.488;2022-12-07T14:47:56;45.08;;;22.30;;
75054;SDS011;63636;44.746;10.488;2022-12-07T14:50:21;48.50;;;23.02;;
75054;SDS011;63636;44.746;10.488;2022-12-07T14:52:58;46.42;;;22.30;;
75054;SDS011;63636;44.746;10.488;2022-12-07T14:55:26;43.33;;;21.23;;
75054;SDS011;63636;44.746;10.488;2022-12-07T14:57:52;45.78;;;21.40;;
75054;SDS011;63636;44.746;10.488;2022-12-07T15:00:18;49.08;;;21.35;;
75054;SDS011;63636;44.746;10.488;2022-12-07T15:02:44;46.58;;;21.42;;
75054;SDS011;63636;44.746;10.488;2022-12-07T15:05:10;49.78;;;22.23;;
75054;SDS011;63636;44.746;10.488;2022-12-07T15:07:36;46.17;;;21.17;;
75054;SDS011;63636;44.746;10.488;2022-12-07T15:10:02;44.10;;;21.15;;
75054;SDS011;63636;44.746;10.488;2022-12-07T15:12:27;44.85;;;20.65;;
75054;SDS011;63636;44.746;10.488;2022-12-07T15:14:53;42.17;;;19.17;;
75054;SDS011;63636;44.746;10.488;2022-12-07T15:17:19;40.78;;;19.23;;
75054;SDS011;63636;44.746;10.488;2022-12-07T15:19:44;42.45;;;20.33;;
75054;SDS011;63636;44.746;10.488;2022-12-07T15:22:10;44.80;;;20.55;;
75054;SDS011;63636;44.746;10.488;2022-12-07T15:24:36;46.58;;;20.50;;
75054;SDS011;63636;44.746;10.488;2022-12-07T15:27:01;47.22;;;20.65;;
75054;SDS011;63636;44.746;10.488;2022-12-07T15:29:27;45.72;;;21.45;;
75054;SDS011;63636;44.746;10.488;2022-12-07T15:31:52;44.60;;;19.95;;
75054;SDS011;63636;44.746;10.488;2022-12-07T15:34:18;47.80;;;21.30;;
75054;SDS011;63636;44.746;10.488;2022-12-07T15:36:44;43.78;;;20.10;;
75054;SDS011;63636;44.746;10.488;2022-12-07T15:39:09;46.03;;;20.65;;
75054;SDS011;63636;44.746;10.488;2022-12-07T15:41:35;43.70;;;20.27;;
75054;SDS011;63636;44.746;10.488;2022-12-07T15:44:01;49.90;;;20.77;;
75054;SDS011;63636;44.746;10.488;2022-12-07T15:46:45;48.63;;;20.45;;
75054;SDS011;63636;44.746;10.488;2022-12-07T15:49:15;47.92;;;21.38;;
75054;SDS011;63636;44.746;10.488;2022-12-07T15:51:41;46.20;;;20.17;;
75054;SDS011;63636;44.746;10.488;2022-12-07T15:54:10;45.97;;;20.60;;
75054;SDS011;63636;44.746;10.488;2022-12-07T15:56:37;48.33;;;22.08;;
75054;SDS011;63636;44.746;10.488;2022-12-07T15:59:03;47.22;;;21.58;;
75054;SDS011;63636;44.746;10.488;2022-12-07T16:01:29;44.67;;;20.63;;
75054;SDS011;63636;44.746;10.488;2022-12-07T16:03:54;42.40;;;20.35;;
75054;SDS011;63636;44.746;10.488;2022-12-07T16:06:22;48.28;;;20.98;;
75054;SDS011;63636;44.746;10.488;2022-12-07T16:08:47;47.10;;;21.73;;
75054;SDS011;63636;44.746;10.488;2022-12-07T16:11:13;46.15;;;20.98;;
75054;SDS011;63636;44.746;10.488;2022-12-07T16:13:39;45.15;;;21.08;;
75054;SDS011;63636;44.746;10.488;2022-12-07T16:16:05;46.25;;;20.60;;
75054;SDS011;63636;44.746;10.488;2022-12-07T16:18:33;48.28;;;20.25;;